createdAt,value
2022-09-04T00:00:08.090Z,9.52
2022-09-04T00:03:18.763Z,6.88
2022-09-04T00:06:17.052Z,9.75
2022-09-04T00:09:18.806Z,7.20
2022-09-04T00:12:10.320Z,11.25
2022-09-04T00:15:12.204Z,8.50
2022-09-04T00:18:10.374Z,7.25
2022-09-04T00:21:10.808Z,6.43
2022-09-04T00:24:06.192Z,7.88
2022-09-04T00:27:03.126Z,15.35
2022-09-04T00:30:02.068Z,6.57
2022-09-04T00:33:02.225Z,6.82
2022-09-04T00:36:00.157Z,9.73
2022-09-04T00:38:56.931Z,6.80
2022-09-04T00:42:20.421Z,7.13
2022-09-04T00:49:11.504Z,6.53
2022-09-04T00:52:16.993Z,6.93
2022-09-04T00:55:37.359Z,5.30
2022-09-04T00:58:49.188Z,4.93
2022-09-04T01:01:39.126Z,5.85
2022-09-04T01:04:51.477Z,8.43
2022-09-04T01:07:56.731Z,8.03
2022-09-04T01:11:04.360Z,6.93
2022-09-04T01:14:13.294Z,8.40
2022-09-04T01:17:17.673Z,7.28
2022-09-04T01:20:22.673Z,6.25
2022-09-04T01:23:37.894Z,5.88
2022-09-04T01:26:41.393Z,5.88
2022-09-04T01:29:47.932Z,5.07
2022-09-04T01:33:04.338Z,5.60
2022-09-04T01:36:05.426Z,5.35
2022-09-04T01:38:58.869Z,4.65
2022-09-04T01:42:02.655Z,6.03
2022-09-04T01:44:51.868Z,5.03
2022-09-04T01:47:50.314Z,4.60
2022-09-04T01:50:45.260Z,6.13
2022-09-04T01:53:42.055Z,5.20
2022-09-04T01:56:41.258Z,5.85
2022-09-04T01:59:44.986Z,8.68
2022-09-04T02:02:54.664Z,5.32
2022-09-04T02:06:01.876Z,5.75
2022-09-04T02:09:12.128Z,5.50
2022-09-04T02:12:29.246Z,5.88
2022-09-04T02:15:43.395Z,7.60
2022-09-04T02:18:48.027Z,5.85
2022-09-04T02:21:45.483Z,4.95
2022-09-04T02:24:47.885Z,6.00
2022-09-04T02:27:49.099Z,6.60
2022-09-04T02:30:54.229Z,5.00
2022-09-04T02:33:51.158Z,5.43
2022-09-04T02:36:50.912Z,6.60
2022-09-04T02:39:58.566Z,8.52
2022-09-04T02:43:12.884Z,4.78
2022-09-04T02:46:13.212Z,5.35
2022-09-04T02:49:16.114Z,7.50
2022-09-04T02:52:33.566Z,5.28
2022-09-04T02:55:45.679Z,7.97
2022-09-04T02:58:58.847Z,7.30
2022-09-04T03:01:59.388Z,8.40
2022-09-04T03:05:00.863Z,8.90
2022-09-04T03:08:01.254Z,8.82
2022-09-04T03:10:59.682Z,9.32
2022-09-04T03:14:00.479Z,6.97
2022-09-04T03:17:00.777Z,6.15
2022-09-04T03:20:00.245Z,7.05
2022-09-04T03:23:00.194Z,15.48
2022-09-04T03:26:19.374Z,5.50
2022-09-04T03:29:27.623Z,5.75
2022-09-04T03:32:29.230Z,7.20
2022-09-04T03:35:31.321Z,7.68
2022-09-04T03:38:29.705Z,5.05
2022-09-04T03:41:35.658Z,4.57
2022-09-04T03:44:41.406Z,4.95
2022-09-04T03:47:47.991Z,5.18
2022-09-04T03:50:48.604Z,5.13
2022-09-04T03:53:45.348Z,4.80
2022-09-04T03:57:10.615Z,5.03
2022-09-04T04:00:10.142Z,5.97
2022-09-04T04:03:41.947Z,5.20
2022-09-04T04:06:44.321Z,4.43
2022-09-04T04:09:54.738Z,5.00
2022-09-04T04:13:31.427Z,5.00
2022-09-04T04:16:42.475Z,5.25
2022-09-04T04:20:02.762Z,4.43
2022-09-04T04:23:25.165Z,3.95
2022-09-04T04:26:22.763Z,6.00
2022-09-04T04:29:40.702Z,4.88
2022-09-04T04:33:10.667Z,4.57
2022-09-04T04:36:15.401Z,4.82
2022-09-04T04:39:30.242Z,5.57
2022-09-04T04:42:30.172Z,4.18
2022-09-04T04:45:46.658Z,5.15
2022-09-04T04:49:26.106Z,4.90
2022-09-04T04:52:50.158Z,5.30
2022-09-04T04:55:51.508Z,4.70
2022-09-04T04:58:59.320Z,4.70
2022-09-04T05:02:07.727Z,4.22
2022-09-04T05:05:13.080Z,6.55
2022-09-04T05:08:17.389Z,3.92
2022-09-04T05:11:18.465Z,4.30
2022-09-04T05:14:27.297Z,5.20
2022-09-04T05:17:34.800Z,5.13
2022-09-04T05:20:41.827Z,3.58
2022-09-04T05:23:46.660Z,4.05
2022-09-04T05:26:53.977Z,4.07
2022-09-04T05:29:56.793Z,3.45
2022-09-04T05:33:00.140Z,3.22
2022-09-04T05:35:57.352Z,5.03
2022-09-04T05:39:09.656Z,4.30
2022-09-04T05:42:39.135Z,4.00
2022-09-04T05:45:47.781Z,4.68
2022-09-04T05:48:53.158Z,4.47
2022-09-04T05:52:33.185Z,5.20
2022-09-04T05:55:54.767Z,3.92
2022-09-04T05:59:13.737Z,4.38
2022-09-04T06:02:28.301Z,3.72
2022-09-04T06:05:32.908Z,5.50
2022-09-04T06:08:41.342Z,4.10
2022-09-04T06:11:56.720Z,5.10
2022-09-04T06:15:27.178Z,3.30
2022-09-04T06:18:43.444Z,7.22
2022-09-04T06:22:08.339Z,4.93
2022-09-04T06:25:33.967Z,6.65
2022-09-04T06:28:56.852Z,5.95
2022-09-04T06:32:14.433Z,5.43
2022-09-04T06:35:47.056Z,6.68
2022-09-04T06:38:52.971Z,4.38
2022-09-04T06:42:05.884Z,8.00
2022-09-04T06:45:21.329Z,7.32
2022-09-04T06:48:25.259Z,8.70
2022-09-04T06:51:46.381Z,6.75
2022-09-04T06:54:55.254Z,4.15
2022-09-04T06:58:24.476Z,7.82
2022-09-04T07:01:26.222Z,6.10
2022-09-04T07:04:37.100Z,6.25
2022-09-04T07:07:38.905Z,9.68
2022-09-04T07:10:34.765Z,7.38
2022-09-04T07:14:17.422Z,8.75
2022-09-04T07:17:19.174Z,7.65
2022-09-04T07:20:22.150Z,7.35
2022-09-04T07:23:28.720Z,10.68
2022-09-04T07:26:28.266Z,8.43
2022-09-04T07:29:34.672Z,4.93
2022-09-04T07:32:39.277Z,6.70
2022-09-04T07:35:38.764Z,9.65
2022-09-04T07:38:38.783Z,6.05
2022-09-04T07:41:44.188Z,8.88
2022-09-04T07:44:46.804Z,10.55
2022-09-04T07:47:45.094Z,8.55
2022-09-04T07:50:40.290Z,9.75
2022-09-04T07:53:55.922Z,11.50
2022-09-04T07:57:11.200Z,7.25
2022-09-04T08:00:09.044Z,9.20
2022-09-04T08:03:30.444Z,8.95
2022-09-04T08:06:29.453Z,9.15
2022-09-04T08:10:07.623Z,8.27
2022-09-04T08:13:33.646Z,8.95
2022-09-04T08:16:31.656Z,10.45
2022-09-04T08:19:42.949Z,8.52
2022-09-04T08:22:46.672Z,9.10
2022-09-04T08:25:55.993Z,9.65
2022-09-04T08:29:09.193Z,9.00
2022-09-04T08:32:18.271Z,7.32
2022-09-04T08:35:23.261Z,5.30
2022-09-04T08:38:39.497Z,10.15
2022-09-04T08:42:29.103Z,8.63
2022-09-04T08:46:30.011Z,7.55
2022-09-04T08:50:10.496Z,9.45
2022-09-04T08:53:41.228Z,7.78
2022-09-04T08:56:41.966Z,7.03
2022-09-04T09:00:08.451Z,9.25
2022-09-04T09:03:57.486Z,9.25
2022-09-04T09:07:42.490Z,6.45
2022-09-04T09:11:02.208Z,6.63
2022-09-04T09:14:59.540Z,5.85
2022-09-04T09:18:03.717Z,5.95
2022-09-04T09:21:02.423Z,6.07
2022-09-04T09:24:38.992Z,5.47
2022-09-04T09:28:20.080Z,4.97
2022-09-04T09:32:08.454Z,8.15
2022-09-04T09:35:57.970Z,6.03
2022-09-04T09:39:37.722Z,4.43
2022-09-04T09:43:01.889Z,4.60
2022-09-04T09:46:39.335Z,4.00
2022-09-04T09:50:06.279Z,4.57
2022-09-04T09:53:50.262Z,3.55
2022-09-04T09:57:03.424Z,4.18
2022-09-04T10:00:15.255Z,3.15
2022-09-04T10:03:49.898Z,2.40
2022-09-04T10:07:48.940Z,4.68
2022-09-04T10:11:25.718Z,2.70
2022-09-04T10:15:04.922Z,5.85
2022-09-04T10:18:26.594Z,2.83
2022-09-04T10:22:20.571Z,2.70
2022-09-04T10:25:35.160Z,3.58
2022-09-04T10:29:28.760Z,4.85
2022-09-04T10:33:09.244Z,3.28
2022-09-04T10:36:30.084Z,3.90
2022-09-04T10:39:55.184Z,3.97
2022-09-04T10:43:10.139Z,3.15
2022-09-04T10:46:08.472Z,3.15
2022-09-04T10:49:40.932Z,2.97
2022-09-04T10:56:16.221Z,2.78
2022-09-04T10:59:32.134Z,3.17
2022-09-04T11:03:05.048Z,3.28
2022-09-04T11:06:35.890Z,2.58
2022-09-04T11:09:36.385Z,2.20
2022-09-04T11:12:52.990Z,2.78
2022-09-04T11:16:01.266Z,1.80
2022-09-04T11:19:20.978Z,1.60
2022-09-04T11:22:55.214Z,2.30
2022-09-04T11:26:18.701Z,2.42
2022-09-04T11:29:33.880Z,2.15
2022-09-04T11:33:02.981Z,3.33
2022-09-04T11:36:35.508Z,2.60
2022-09-04T11:40:04.372Z,3.35
2022-09-04T11:43:19.726Z,4.00
2022-09-04T11:46:35.553Z,3.47
2022-09-04T11:49:54.395Z,3.38
2022-09-04T11:53:24.942Z,2.88
2022-09-04T11:56:47.682Z,2.80
2022-09-04T12:00:09.921Z,1.92
2022-09-04T12:03:37.605Z,3.03
2022-09-04T12:06:43.529Z,3.03
2022-09-04T12:10:27.262Z,1.98
2022-09-04T12:14:19.655Z,2.03
2022-09-04T12:17:51.689Z,1.80
2022-09-04T12:21:48.820Z,1.55
2022-09-04T12:25:14.866Z,1.50
2022-09-04T12:28:48.293Z,4.28
2022-09-04T12:32:35.379Z,1.80
2022-09-04T12:36:14.398Z,1.90
2022-09-04T12:40:00.411Z,2.25
2022-09-04T12:43:05.886Z,1.75
2022-09-04T12:46:16.821Z,1.90
2022-09-04T12:49:44.250Z,2.10
2022-09-04T12:53:19.196Z,3.00
2022-09-04T12:56:17.004Z,1.77
2022-09-04T12:59:33.598Z,2.38
2022-09-04T13:02:46.834Z,2.05
2022-09-04T13:05:58.948Z,2.63
2022-09-04T13:09:03.953Z,2.08
2022-09-04T13:12:13.586Z,2.78
2022-09-04T13:15:22.638Z,2.47
2022-09-04T13:18:34.795Z,2.28
2022-09-04T13:21:55.321Z,2.50
2022-09-04T13:25:02.785Z,1.63
2022-09-04T13:28:17.215Z,2.40
2022-09-04T13:31:54.572Z,1.80
2022-09-04T13:35:09.613Z,2.38
2022-09-04T13:38:23.148Z,2.47
2022-09-04T13:41:42.995Z,2.83
2022-09-04T13:45:15.748Z,3.05
2022-09-04T13:48:13.081Z,3.20
2022-09-04T13:51:13.601Z,2.83
2022-09-04T13:54:10.594Z,2.40
2022-09-04T13:57:09.826Z,3.28
2022-09-04T14:00:03.935Z,2.22
2022-09-04T14:03:01.875Z,3.55
2022-09-04T14:05:52.443Z,3.03
2022-09-04T14:08:44.422Z,3.10
2022-09-04T14:12:24.805Z,1.50
2022-09-04T14:16:02.526Z,1.73
2022-09-04T14:19:15.647Z,3.25
2022-09-04T14:22:42.240Z,1.95
2022-09-04T14:25:40.613Z,1.95
2022-09-04T14:28:44.761Z,2.35
2022-09-04T14:31:49.001Z,1.30
2022-09-04T14:35:02.161Z,1.98
2022-09-04T14:38:41.205Z,1.20
2022-09-04T14:41:48.396Z,1.88
2022-09-04T14:44:59.887Z,1.40
2022-09-04T14:47:55.920Z,2.15
2022-09-04T14:50:51.969Z,2.63
2022-09-04T14:53:49.312Z,1.20
2022-09-04T14:56:47.976Z,1.50
2022-09-04T14:59:45.204Z,1.55
2022-09-04T15:02:43.774Z,1.45
2022-09-04T15:05:39.788Z,1.63
2022-09-04T15:08:38.096Z,2.20
2022-09-04T15:11:35.555Z,2.40
2022-09-04T15:14:34.558Z,2.58
2022-09-04T15:17:30.200Z,3.60
2022-09-04T15:20:25.037Z,3.30
2022-09-04T15:23:28.666Z,2.50
2022-09-04T15:26:29.387Z,2.65
2022-09-04T15:29:28.950Z,2.08
2022-09-04T15:32:24.848Z,2.45
2022-09-04T15:35:22.934Z,1.52
2022-09-04T15:38:21.270Z,1.60
2022-09-04T15:41:25.953Z,1.50
2022-09-04T15:44:29.728Z,1.92
2022-09-04T15:47:43.415Z,2.97
2022-09-04T15:50:41.306Z,3.67
2022-09-04T15:53:34.527Z,3.90
2022-09-04T15:56:36.927Z,5.45
2022-09-04T15:59:43.701Z,5.30
2022-09-04T16:02:46.396Z,6.85
2022-09-04T16:05:47.055Z,5.13
2022-09-04T16:08:47.021Z,5.95
2022-09-04T16:11:46.717Z,12.65
2022-09-04T16:14:45.379Z,13.77
2022-09-04T16:17:45.308Z,8.05
2022-09-04T16:20:40.784Z,7.47
2022-09-04T16:23:33.677Z,8.20
2022-09-04T16:26:32.346Z,6.60
2022-09-04T16:29:36.335Z,6.28
2022-09-04T16:32:31.798Z,4.03
2022-09-04T16:35:23.858Z,3.97
2022-09-04T16:41:19.357Z,3.33
2022-09-04T16:44:26.260Z,2.60
2022-09-04T16:47:27.162Z,2.35
2022-09-04T16:50:27.287Z,2.75
2022-09-04T16:53:24.365Z,2.17
2022-09-04T16:56:36.948Z,2.00
2022-09-04T16:59:37.953Z,4.85
2022-09-04T17:02:45.030Z,2.80
2022-09-04T17:05:46.913Z,1.70
2022-09-04T17:08:44.186Z,3.40
2022-09-04T17:11:44.192Z,2.60
2022-09-04T17:14:53.495Z,2.97
2022-09-04T17:17:47.219Z,2.63
2022-09-04T17:21:59.700Z,2.33
2022-09-04T17:29:04.280Z,2.33
2022-09-04T17:29:15.234Z,2.30
2022-09-04T17:30:40.231Z,2.50
2022-09-04T17:40:38.299Z,3.80
2022-09-04T17:40:43.843Z,2.40
2022-09-04T17:40:48.848Z,11.88
2022-09-04T17:44:01.848Z,16.85
2022-09-04T17:47:08.107Z,17.20
2022-09-04T17:50:00.246Z,12.50
2022-09-04T17:55:54.305Z,9.43
2022-09-04T17:58:53.631Z,5.18
2022-09-04T18:01:59.140Z,3.83
2022-09-04T18:04:58.090Z,4.32
2022-09-04T18:08:08.992Z,4.90
2022-09-04T18:11:09.022Z,4.75
2022-09-04T18:14:11.316Z,5.07
2022-09-04T18:17:11.659Z,5.53
2022-09-04T18:20:16.088Z,5.88
2022-09-04T18:23:52.460Z,4.65
2022-09-04T18:26:50.629Z,4.82
2022-09-04T18:32:47.206Z,4.28
2022-09-04T18:37:16.436Z,4.55
2022-09-04T18:37:23.854Z,5.47
2022-09-04T18:39:51.619Z,5.15
2022-09-04T18:50:23.024Z,5.50
2022-09-04T18:50:28.114Z,5.20
2022-09-04T18:50:48.581Z,5.03
2022-09-04T18:52:51.339Z,7.78
2022-09-04T18:55:53.113Z,5.78
2022-09-04T18:58:54.415Z,6.17
2022-09-04T19:01:50.750Z,5.47
2022-09-04T19:04:51.075Z,6.57
2022-09-04T19:07:48.140Z,5.95
2022-09-04T19:10:48.159Z,8.82
2022-09-04T19:13:46.342Z,10.07
2022-09-04T19:16:42.019Z,9.73
2022-09-04T19:19:40.975Z,9.57
2022-09-04T19:22:43.597Z,10.40
2022-09-04T19:25:41.729Z,9.45
2022-09-04T19:28:53.206Z,8.77
2022-09-04T19:31:53.510Z,7.70
2022-09-04T19:34:52.615Z,7.45
2022-09-04T19:44:25.562Z,6.72
2022-09-04T19:46:08.224Z,7.05
2022-09-04T19:46:16.780Z,6.35
2022-09-04T19:47:50.516Z,6.22
2022-09-04T19:53:19.617Z,6.88
2022-09-04T19:54:07.130Z,13.07
2022-09-04T19:57:32.380Z,8.00
2022-09-04T20:00:42.678Z,9.32
2022-09-04T20:03:46.395Z,9.18
2022-09-04T20:06:47.252Z,9.50
2022-09-04T20:09:46.677Z,11.32
2022-09-04T20:12:48.941Z,12.45
2022-09-04T20:15:55.834Z,10.57
2022-09-04T20:18:53.437Z,10.43
2022-09-04T20:21:49.212Z,11.75
2022-09-04T20:25:01.269Z,9.75
2022-09-04T20:27:58.289Z,9.25
2022-09-04T20:31:28.426Z,11.60
2022-09-04T20:34:36.038Z,11.23
2022-09-04T20:37:33.910Z,8.98
2022-09-04T20:40:35.933Z,10.07
2022-09-04T20:43:40.782Z,8.65
2022-09-04T20:52:45.669Z,9.23
2022-09-04T20:52:50.861Z,9.82
2022-09-04T20:53:24.458Z,7.53
2022-09-04T20:57:44.913Z,7.45
2022-09-04T21:03:23.005Z,7.32
2022-09-04T21:03:28.025Z,6.95
2022-09-04T21:06:32.854Z,6.60
2022-09-04T21:09:54.725Z,6.80
2022-09-04T21:13:13.815Z,6.82
2022-09-04T21:16:15.299Z,6.55
2022-09-04T21:19:42.171Z,6.27
2022-09-04T21:22:55.804Z,7.03
2022-09-04T21:26:00.096Z,6.28
2022-09-04T21:29:29.540Z,5.28
2022-09-04T21:32:48.531Z,5.28
2022-09-04T21:35:48.175Z,6.22
2022-09-04T21:39:23.949Z,5.70
2022-09-04T21:42:51.964Z,5.93
2022-09-04T21:46:07.738Z,3.92
2022-09-04T21:49:37.806Z,5.25
2022-09-04T21:52:56.871Z,5.78
2022-09-04T22:02:25.195Z,6.05
2022-09-04T22:02:46.079Z,5.63
2022-09-04T22:03:35.330Z,5.35
2022-09-04T22:10:19.562Z,5.40
2022-09-04T22:13:37.242Z,6.57
2022-09-04T22:14:03.305Z,6.10
2022-09-04T22:17:15.158Z,7.82
2022-09-04T22:20:49.114Z,5.72
2022-09-04T22:24:33.152Z,5.20
2022-09-04T22:28:07.411Z,5.82
2022-09-04T22:31:45.141Z,5.13
2022-09-04T22:35:36.500Z,4.88
2022-09-04T22:38:56.902Z,6.35
2022-09-04T22:42:34.362Z,5.20
2022-09-04T22:46:14.994Z,5.38
2022-09-04T22:49:47.342Z,4.40
2022-09-04T22:53:06.477Z,4.05
2022-09-04T22:56:23.613Z,6.30
2022-09-04T22:59:58.469Z,5.13
2022-09-04T23:03:36.219Z,3.92
2022-09-04T23:13:20.685Z,5.22
2022-09-04T23:13:49.103Z,4.32
2022-09-04T23:14:07.690Z,4.55
2022-09-04T23:17:32.854Z,4.35
2022-09-04T23:26:34.844Z,4.13
2022-09-04T23:26:57.688Z,4.05
2022-09-04T23:27:52.542Z,4.43
2022-09-04T23:30:53.218Z,5.38
2022-09-04T23:34:10.168Z,4.72
2022-09-04T23:37:32.972Z,4.05
2022-09-04T23:40:39.151Z,7.13
2022-09-04T23:44:25.797Z,5.50
2022-09-04T23:48:06.550Z,6.00
2022-09-04T23:51:05.248Z,4.25
2022-09-04T23:54:31.118Z,4.07
2022-09-04T23:57:29.568Z,6.38
